createdAt,value
2018-12-24T00:02:01.032Z,0.37
2018-12-24T00:04:27.351Z,0.40
2018-12-24T00:06:53.653Z,0.70
2018-12-24T00:09:20.067Z,0.45
2018-12-24T00:11:46.295Z,0.30
2018-12-24T00:14:12.525Z,0.40
2018-12-24T00:16:38.756Z,0.40
2018-12-24T00:19:04.957Z,0.30
2018-12-24T00:21:31.172Z,0.30
2018-12-24T00:23:57.375Z,0.40
2018-12-24T00:26:23.592Z,0.30
2018-12-24T00:28:49.811Z,0.30
2018-12-24T00:31:16.126Z,0.70
2018-12-24T00:33:42.326Z,0.75
2018-12-24T00:36:08.564Z,0.40
2018-12-24T00:38:34.775Z,0.33
2018-12-24T00:41:01.001Z,0.30
2018-12-24T00:43:27.272Z,0.30
2018-12-24T00:45:53.561Z,1.35
2018-12-24T00:48:19.784Z,0.40
2018-12-24T00:50:45.994Z,0.75
2018-12-24T00:53:12.211Z,1.40
2018-12-24T00:55:38.476Z,0.30
2018-12-24T00:58:04.703Z,0.55
2018-12-24T01:00:30.909Z,0.30
2018-12-24T01:02:57.136Z,1.37
2018-12-24T01:05:23.436Z,0.30
2018-12-24T01:08:32.872Z,0.43
2018-12-24T01:10:58.971Z,0.50
2018-12-24T01:13:25.072Z,0.30
2018-12-24T01:15:51.151Z,0.40
2018-12-24T01:18:17.227Z,0.30
2018-12-24T01:20:43.323Z,0.50
2018-12-24T01:23:09.409Z,0.30
2018-12-24T01:25:35.500Z,0.30
2018-12-24T01:28:01.575Z,0.30
2018-12-24T01:30:27.652Z,1.90
2018-12-24T01:32:53.743Z,0.30
2018-12-24T01:35:19.821Z,0.53
2018-12-24T01:37:45.923Z,0.30
2018-12-24T01:40:12.000Z,0.30
2018-12-24T01:42:38.090Z,0.30
2018-12-24T01:45:04.276Z,0.40
2018-12-24T01:47:30.368Z,0.30
2018-12-24T01:49:56.442Z,0.30
2018-12-24T01:52:22.563Z,0.30
2018-12-24T01:54:48.648Z,0.30
2018-12-24T01:57:14.727Z,0.40
2018-12-24T01:59:40.824Z,0.30
2018-12-24T02:02:06.904Z,0.33
2018-12-24T02:04:33.096Z,0.30
2018-12-24T02:06:59.192Z,0.40
2018-12-24T02:09:25.302Z,0.30
2018-12-24T02:11:51.489Z,0.30
2018-12-24T02:14:17.636Z,0.40
2018-12-24T02:16:43.789Z,0.40
2018-12-24T02:19:09.887Z,0.60
2018-12-24T02:21:35.967Z,0.57
2018-12-24T02:24:02.120Z,0.33
2018-12-24T02:26:28.283Z,0.30
2018-12-24T02:28:54.373Z,0.40
2018-12-24T02:31:20.456Z,0.37
2018-12-24T02:33:46.553Z,0.30
2018-12-24T02:36:12.655Z,0.30
2018-12-24T02:38:38.748Z,0.30
2018-12-24T02:41:04.833Z,0.53
2018-12-24T02:43:31.025Z,0.30
2018-12-24T02:45:57.100Z,0.30
2018-12-24T02:48:23.201Z,0.30
2018-12-24T02:50:49.276Z,0.30
2018-12-24T02:53:15.372Z,0.30
2018-12-24T02:55:41.456Z,0.60
2018-12-24T02:58:07.576Z,0.30
2018-12-24T03:00:33.651Z,1.57
2018-12-24T03:02:59.749Z,0.30
2018-12-24T03:05:25.820Z,0.40
2018-12-24T03:07:51.997Z,0.30
2018-12-24T03:10:18.320Z,0.30
2018-12-24T03:12:44.433Z,2.25
2018-12-24T03:15:10.520Z,0.30
2018-12-24T03:17:36.596Z,0.30
2018-12-24T03:20:03.696Z,0.40
2018-12-24T03:22:29.772Z,0.30
2018-12-24T03:24:55.868Z,0.30
2018-12-24T03:27:41.844Z,0.30
2018-12-24T03:30:08.221Z,0.40
2018-12-24T03:32:34.450Z,0.30
2018-12-24T03:35:00.640Z,0.40
2018-12-24T03:37:26.722Z,0.40
2018-12-24T03:39:52.814Z,0.30
2018-12-24T03:42:18.889Z,0.30
2018-12-24T03:44:44.987Z,0.60
2018-12-24T03:47:11.069Z,0.30
2018-12-24T03:49:37.167Z,0.50
2018-12-24T03:52:03.247Z,0.40
2018-12-24T03:54:29.343Z,0.30
2018-12-24T03:56:55.420Z,0.30
2018-12-24T03:59:21.524Z,0.40
2018-12-24T04:01:47.592Z,0.47
2018-12-24T04:04:13.681Z,2.87
2018-12-24T04:06:39.761Z,2.95
2018-12-24T04:09:05.847Z,0.40
2018-12-24T04:11:31.942Z,0.80
2018-12-24T04:13:58.031Z,0.70
2018-12-24T04:16:24.190Z,0.80
2018-12-24T04:18:50.372Z,0.40
2018-12-24T04:21:16.459Z,0.93
2018-12-24T04:23:42.552Z,0.57
2018-12-24T04:26:08.636Z,4.03
2018-12-24T04:28:34.720Z,0.72
2018-12-24T04:31:00.833Z,2.08
2018-12-24T04:33:26.905Z,1.15
2018-12-24T04:35:52.992Z,6.37
2018-12-24T04:38:19.061Z,3.50
2018-12-24T04:40:45.263Z,0.53
2018-12-24T04:43:11.336Z,0.50
2018-12-24T04:45:37.420Z,0.40
2018-12-24T04:48:03.494Z,3.00
2018-12-24T04:50:29.580Z,0.78
2018-12-24T04:52:55.647Z,0.60
2018-12-24T04:55:21.739Z,1.75
2018-12-24T04:57:47.811Z,0.80
2018-12-24T05:00:13.900Z,0.72
2018-12-24T05:02:39.986Z,1.15
2018-12-24T05:05:06.085Z,0.70
2018-12-24T05:07:32.257Z,1.22
2018-12-24T05:09:58.340Z,0.45
2018-12-24T05:12:24.404Z,0.53
2018-12-24T05:14:50.601Z,0.50
2018-12-24T05:17:16.758Z,0.50
2018-12-24T05:19:42.829Z,1.00
2018-12-24T05:22:08.919Z,0.82
2018-12-24T05:24:34.996Z,0.80
2018-12-24T05:27:01.084Z,1.35
2018-12-24T05:29:27.161Z,1.50
2018-12-24T05:31:53.263Z,0.72
2018-12-24T05:34:19.320Z,0.82
2018-12-24T05:36:45.403Z,0.60
2018-12-24T05:39:11.767Z,0.70
2018-12-24T05:41:37.848Z,0.90
2018-12-24T05:44:03.935Z,1.35
2018-12-24T05:46:30.019Z,1.65
2018-12-24T05:48:56.094Z,0.45
2018-12-24T05:51:22.171Z,1.15
2018-12-24T05:53:48.254Z,0.30
2018-12-24T05:56:14.444Z,0.40
2018-12-24T05:58:40.515Z,0.50
2018-12-24T06:01:06.699Z,0.50
2018-12-24T06:03:32.775Z,0.50
2018-12-24T06:05:58.859Z,0.50
2018-12-24T06:08:24.907Z,0.40
2018-12-24T06:10:50.964Z,0.45
2018-12-24T06:13:17.040Z,0.50
2018-12-24T06:15:43.132Z,0.30
2018-12-24T06:18:09.208Z,0.30
2018-12-24T06:20:37.774Z,0.53
2018-12-24T06:23:03.270Z,0.50
2018-12-24T06:25:29.341Z,0.60
2018-12-24T06:27:55.424Z,0.70
2018-12-24T06:30:21.512Z,0.60
2018-12-24T06:32:48.011Z,0.50
2018-12-24T06:35:14.127Z,0.50
2018-12-24T06:37:40.209Z,0.55
2018-12-24T06:40:06.279Z,0.60
2018-12-24T06:42:32.405Z,0.50
2018-12-24T06:44:58.533Z,0.62
2018-12-24T06:47:24.657Z,1.25
2018-12-24T06:49:50.728Z,0.50
2018-12-24T06:52:16.917Z,0.80
2018-12-24T06:54:42.988Z,0.40
2018-12-24T06:57:09.059Z,0.40
2018-12-24T06:59:35.143Z,0.40
2018-12-24T07:02:01.229Z,0.50
2018-12-24T07:04:27.296Z,0.65
2018-12-24T07:06:53.387Z,0.50
2018-12-24T07:09:19.471Z,0.70
2018-12-24T07:11:45.552Z,0.53
2018-12-24T07:14:15.475Z,0.45
2018-12-24T07:16:39.665Z,1.02
2018-12-24T07:19:05.736Z,0.60
2018-12-24T07:21:31.809Z,0.72
2018-12-24T07:23:57.900Z,0.60
2018-12-24T07:26:24.031Z,1.20
2018-12-24T07:28:58.786Z,1.05
2018-12-24T07:31:18.255Z,1.22
2018-12-24T07:33:44.356Z,0.82
2018-12-24T07:36:10.431Z,1.05
2018-12-24T07:38:36.516Z,1.15
2018-12-24T07:41:02.592Z,0.70
2018-12-24T07:43:28.662Z,0.85
2018-12-24T07:45:54.727Z,0.85
2018-12-24T07:48:20.810Z,0.75
2018-12-24T07:50:46.883Z,0.80
2018-12-24T07:53:12.962Z,1.05
2018-12-24T07:55:39.031Z,1.42
2018-12-24T07:58:05.116Z,0.95
2018-12-24T08:00:31.186Z,1.00
2018-12-24T08:02:57.275Z,2.42
2018-12-24T08:05:23.348Z,1.67
2018-12-24T08:07:49.424Z,2.08
2018-12-24T08:10:15.509Z,2.40
2018-12-24T08:12:41.709Z,2.85
2018-12-24T08:15:07.779Z,5.25
2018-12-24T08:17:33.860Z,4.42
2018-12-24T08:19:59.947Z,2.80
2018-12-24T08:22:26.033Z,3.27
2018-12-24T08:24:52.203Z,2.47
2018-12-24T08:27:18.285Z,3.25
2018-12-24T08:29:44.360Z,2.60
2018-12-24T08:32:11.539Z,2.90
2018-12-24T08:34:37.791Z,3.10
2018-12-24T08:37:03.860Z,2.58
2018-12-24T08:39:29.943Z,2.45
2018-12-24T08:41:56.013Z,3.47
2018-12-24T08:44:22.104Z,3.02
2018-12-24T08:46:48.177Z,9.15
2018-12-24T08:49:14.276Z,3.40
2018-12-24T08:51:40.363Z,3.00
2018-12-24T08:54:06.435Z,3.50
2018-12-24T08:56:32.564Z,2.55
2018-12-24T08:58:58.655Z,3.10
2018-12-24T09:01:24.732Z,2.90
2018-12-24T09:03:50.799Z,3.02
2018-12-24T09:06:16.899Z,3.95
2018-12-24T09:08:42.967Z,3.70
2018-12-24T09:11:09.045Z,4.15
2018-12-24T09:13:35.243Z,5.70
2018-12-24T09:16:01.324Z,4.30
2018-12-24T09:18:27.429Z,4.28
2018-12-24T09:20:53.597Z,5.00
2018-12-24T09:23:19.682Z,3.05
2018-12-24T09:25:45.757Z,4.83
2018-12-24T09:28:11.851Z,4.37
2018-12-24T09:30:38.839Z,3.17
2018-12-24T09:33:04.948Z,3.40
2018-12-24T09:35:31.039Z,3.47
2018-12-24T09:37:57.132Z,3.75
2018-12-24T09:40:23.211Z,3.05
2018-12-24T09:42:49.284Z,3.02
2018-12-24T09:45:15.376Z,3.87
2018-12-24T09:47:41.449Z,3.42
2018-12-24T09:50:07.540Z,3.60
2018-12-24T09:52:33.616Z,3.92
2018-12-24T09:54:59.728Z,4.40
2018-12-24T09:57:25.797Z,4.25
2018-12-24T09:59:51.883Z,6.60
2018-12-24T10:02:19.360Z,5.35
2018-12-24T10:04:45.947Z,4.28
2018-12-24T10:07:13.941Z,4.28
2018-12-24T10:09:40.020Z,4.25
2018-12-24T10:12:06.104Z,2.85
2018-12-24T10:14:32.172Z,2.70
2018-12-24T10:16:58.257Z,2.85
2018-12-24T10:19:24.293Z,2.50
2018-12-24T10:21:50.348Z,2.65
2018-12-24T10:24:16.424Z,4.92
2018-12-24T10:26:42.508Z,3.17
2018-12-24T10:29:08.623Z,5.22
2018-12-24T10:31:34.726Z,1.92
2018-12-24T10:34:00.795Z,2.50
2018-12-24T10:36:26.871Z,2.92
2018-12-24T10:38:52.958Z,4.28
2018-12-24T10:41:19.043Z,2.25
2018-12-24T10:43:45.102Z,2.42
2018-12-24T10:46:11.192Z,2.60
2018-12-24T10:48:37.272Z,1.75
2018-12-24T10:51:03.365Z,1.67
2018-12-24T10:53:29.431Z,1.85
2018-12-24T10:55:55.495Z,1.85
2018-12-24T10:58:21.584Z,1.60
2018-12-24T11:00:47.659Z,2.20
2018-12-24T11:03:13.740Z,1.77
2018-12-24T11:05:39.827Z,2.42
2018-12-24T11:08:05.921Z,1.70
2018-12-24T11:10:31.996Z,1.70
2018-12-24T11:12:58.135Z,1.30
2018-12-24T11:15:25.269Z,1.70
2018-12-24T11:17:51.659Z,2.20
2018-12-24T11:20:17.741Z,1.52
2018-12-24T11:22:43.824Z,2.37
2018-12-24T11:25:09.896Z,2.27
2018-12-24T11:27:35.959Z,1.95
2018-12-24T11:30:02.351Z,2.27
2018-12-24T11:32:42.892Z,2.30
2018-12-24T11:35:08.998Z,3.00
2018-12-24T11:37:35.075Z,2.40
2018-12-24T11:40:01.149Z,1.55
2018-12-24T11:42:27.232Z,2.22
2018-12-24T11:44:53.299Z,1.10
2018-12-24T11:47:19.380Z,1.20
2018-12-24T11:49:45.460Z,1.32
2018-12-24T11:52:11.628Z,1.20
2018-12-24T11:54:40.775Z,1.40
2018-12-24T11:57:06.865Z,1.37
2018-12-24T11:59:32.977Z,1.40
2018-12-24T12:01:59.021Z,1.40
2018-12-24T12:04:25.108Z,1.72
2018-12-24T12:06:51.162Z,1.42
2018-12-24T12:09:17.255Z,1.95
2018-12-24T12:11:43.336Z,2.12
2018-12-24T12:14:09.435Z,1.20
2018-12-24T12:16:35.512Z,1.20
2018-12-24T12:19:01.575Z,1.10
2018-12-24T12:21:27.663Z,1.80
2018-12-24T12:23:53.732Z,1.45
2018-12-24T12:26:19.817Z,1.60
2018-12-24T12:28:45.892Z,1.75
2018-12-24T12:31:11.980Z,1.65
2018-12-24T12:33:38.082Z,1.70
2018-12-24T12:36:04.160Z,2.65
2018-12-24T12:38:30.243Z,2.05
2018-12-24T12:41:16.288Z,1.50
2018-12-24T12:43:42.490Z,1.27
2018-12-24T12:46:08.682Z,1.32
2018-12-24T12:48:34.764Z,1.50
2018-12-24T12:51:00.831Z,1.52
2018-12-24T12:53:26.927Z,1.40
2018-12-24T12:55:53.090Z,1.10
2018-12-24T12:58:19.173Z,1.45
2018-12-24T13:00:45.255Z,1.10
2018-12-24T13:03:11.357Z,0.82
2018-12-24T13:05:37.428Z,1.80
2018-12-24T13:08:03.516Z,1.05
2018-12-24T13:10:29.587Z,1.00
2018-12-24T13:12:55.685Z,1.70
2018-12-24T13:15:21.769Z,1.60
2018-12-24T13:17:47.953Z,1.00
2018-12-24T13:20:14.132Z,2.35
2018-12-24T13:22:40.211Z,1.62
2018-12-24T13:25:06.311Z,2.30
2018-12-24T13:27:32.392Z,1.20
2018-12-24T13:29:58.474Z,0.95
2018-12-24T13:32:26.446Z,3.12
2018-12-24T13:34:52.530Z,6.15
2018-12-24T13:37:18.600Z,4.65
2018-12-24T13:39:44.697Z,8.33
2018-12-24T13:42:10.780Z,3.37
2018-12-24T13:44:37.074Z,5.28
2018-12-24T13:47:03.168Z,3.25
2018-12-24T13:49:29.243Z,0.65
2018-12-24T13:51:55.334Z,0.50
2018-12-24T13:54:21.420Z,1.62
2018-12-24T13:56:47.483Z,1.60
2018-12-24T13:59:13.572Z,0.90
2018-12-24T14:01:39.630Z,0.68
2018-12-24T14:04:05.708Z,1.60
2018-12-24T14:06:31.795Z,2.60
2018-12-24T14:08:57.860Z,0.90
2018-12-24T14:11:23.944Z,0.80
2018-12-24T14:13:50.055Z,3.75
2018-12-24T14:16:16.829Z,1.87
2018-12-24T14:18:43.320Z,1.10
2018-12-24T14:21:09.387Z,1.30
2018-12-24T14:23:35.504Z,1.60
2018-12-24T14:26:01.571Z,1.00
2018-12-24T14:28:27.812Z,2.12
2018-12-24T14:30:53.985Z,1.05
2018-12-24T14:33:20.092Z,1.05
2018-12-24T14:35:46.165Z,0.70
2018-12-24T14:38:12.250Z,0.78
2018-12-24T14:40:38.324Z,1.05
2018-12-24T14:43:04.452Z,0.72
2018-12-24T14:45:30.533Z,0.85
2018-12-24T14:47:56.627Z,0.75
2018-12-24T14:50:22.695Z,0.60
2018-12-24T14:52:48.767Z,0.70
2018-12-24T14:55:14.868Z,0.65
2018-12-24T14:57:41.240Z,1.12
2018-12-24T15:00:07.540Z,2.05
2018-12-24T15:02:33.617Z,2.47
2018-12-24T15:04:59.700Z,2.50
2018-12-24T15:07:25.797Z,0.72
2018-12-24T15:09:51.975Z,1.65
2018-12-24T15:12:18.044Z,2.05
2018-12-24T15:14:44.123Z,1.22
2018-12-24T15:17:10.201Z,1.02
2018-12-24T15:19:36.270Z,1.90
2018-12-24T15:22:02.340Z,1.62
2018-12-24T15:24:28.435Z,2.20
2018-12-24T15:26:54.507Z,2.52
2018-12-24T15:29:20.576Z,2.20
2018-12-24T15:31:46.660Z,2.15
2018-12-24T15:34:12.767Z,1.70
2018-12-24T15:36:38.871Z,2.00
2018-12-24T15:39:04.935Z,1.47
2018-12-24T15:41:31.039Z,81.30
2018-12-24T15:43:57.134Z,10.95
2018-12-24T15:46:23.256Z,2.15
2018-12-24T15:48:49.328Z,2.45
2018-12-24T15:51:15.611Z,2.05
2018-12-24T15:53:41.692Z,2.42
2018-12-24T15:56:07.767Z,2.35
2018-12-24T15:58:33.840Z,2.10
2018-12-24T16:00:59.923Z,3.77
2018-12-24T16:03:25.992Z,5.83
2018-12-24T16:05:52.083Z,12.35
2018-12-24T16:08:18.160Z,3.02
2018-12-24T16:10:44.244Z,2.80
2018-12-24T16:13:10.311Z,4.00
2018-12-24T16:15:36.423Z,23.27
2018-12-24T16:18:02.581Z,12.63
2018-12-24T16:20:28.691Z,2.80
2018-12-24T16:22:54.960Z,5.17
2018-12-24T16:25:21.052Z,4.25
2018-12-24T16:27:47.119Z,4.70
2018-12-24T16:30:13.192Z,6.05
2018-12-24T16:32:39.271Z,9.75
2018-12-24T16:35:05.360Z,9.15
2018-12-24T16:37:31.447Z,11.00
2018-12-24T16:39:58.896Z,7.65
2018-12-24T16:42:24.992Z,8.98
2018-12-24T16:44:51.085Z,4.55
2018-12-24T16:47:17.172Z,2.15
2018-12-24T16:49:43.244Z,3.15
2018-12-24T16:52:09.331Z,3.15
2018-12-24T16:54:35.399Z,11.73
2018-12-24T16:57:01.488Z,3.05
2018-12-24T16:59:27.551Z,5.10
2018-12-24T17:01:53.653Z,4.58
2018-12-24T17:04:19.735Z,11.15
2018-12-24T17:06:45.831Z,5.65
2018-12-24T17:09:11.900Z,16.20
2018-12-24T17:11:37.995Z,5.78
2018-12-24T17:14:04.061Z,12.95
2018-12-24T17:16:30.152Z,46.30
2018-12-24T17:18:56.228Z,3.70
2018-12-24T17:21:22.317Z,4.20
2018-12-24T17:23:48.389Z,4.37
2018-12-24T17:26:14.479Z,5.20
2018-12-24T17:28:40.555Z,4.85
2018-12-24T17:31:06.624Z,8.00
2018-12-24T17:33:32.726Z,15.18
2018-12-24T17:35:58.806Z,4.58
2018-12-24T17:38:24.891Z,3.95
2018-12-24T17:40:51.058Z,5.72
2018-12-24T17:43:17.260Z,6.78
2018-12-24T17:45:43.358Z,7.30
2018-12-24T17:48:09.447Z,6.15
2018-12-24T17:50:35.517Z,15.00
2018-12-24T17:53:01.603Z,19.05
2018-12-24T17:55:27.680Z,9.58
2018-12-24T17:57:53.774Z,12.13
2018-12-24T18:00:19.844Z,8.98
2018-12-24T18:02:45.932Z,7.20
2018-12-24T18:05:12.028Z,11.83
2018-12-24T18:07:38.115Z,5.90
2018-12-24T18:10:04.292Z,13.40
2018-12-24T18:12:30.378Z,7.72
2018-12-24T18:14:56.448Z,6.15
2018-12-24T18:17:24.907Z,8.75
2018-12-24T18:19:50.636Z,6.78
2018-12-24T18:22:16.725Z,10.45
2018-12-24T18:24:42.795Z,6.20
2018-12-24T18:27:08.893Z,5.87
2018-12-24T18:29:34.960Z,5.90
2018-12-24T18:32:01.032Z,5.75
2018-12-24T18:34:27.147Z,9.43
2018-12-24T18:36:53.216Z,5.90
2018-12-24T18:39:19.312Z,4.92
2018-12-24T18:41:45.390Z,5.05
2018-12-24T18:44:11.481Z,13.83
2018-12-24T18:46:37.554Z,7.70
2018-12-24T18:49:03.646Z,6.75
2018-12-24T18:51:29.709Z,9.38
2018-12-24T18:53:55.800Z,7.37
2018-12-24T18:56:21.876Z,14.58
2018-12-24T18:58:50.743Z,13.30
2018-12-24T19:01:16.832Z,9.03
2018-12-24T19:03:42.920Z,6.28
2018-12-24T19:06:08.996Z,5.85
2018-12-24T19:08:35.090Z,8.98
2018-12-24T19:11:01.160Z,6.87
2018-12-24T19:13:27.245Z,6.35
2018-12-24T19:15:53.316Z,7.40
2018-12-24T19:18:19.399Z,9.55
2018-12-24T19:20:45.469Z,8.25
2018-12-24T19:23:11.559Z,7.50
2018-12-24T19:25:37.631Z,8.65
2018-12-24T19:28:03.696Z,6.97
2018-12-24T19:30:29.814Z,9.48
2018-12-24T19:32:55.895Z,7.67
2018-12-24T19:35:22.001Z,10.05
2018-12-24T19:37:48.076Z,6.53
2018-12-24T19:40:14.154Z,9.03
2018-12-24T19:42:40.233Z,10.00
2018-12-24T19:45:06.329Z,6.65
2018-12-24T19:47:32.411Z,9.35
2018-12-24T19:49:58.500Z,11.97
2018-12-24T19:52:24.568Z,10.30
2018-12-24T19:54:50.659Z,14.55
2018-12-24T19:57:16.731Z,9.53
2018-12-24T19:59:42.828Z,15.23
2018-12-24T20:02:08.892Z,9.45
2018-12-24T20:04:34.976Z,9.15
2018-12-24T20:07:01.045Z,10.00
2018-12-24T20:09:27.134Z,14.10
2018-12-24T20:11:53.207Z,10.45
2018-12-24T20:14:19.303Z,8.50
2018-12-24T20:16:45.380Z,17.40
2018-12-24T20:19:11.468Z,7.92
2018-12-24T20:21:37.536Z,8.23
2018-12-24T20:24:03.628Z,8.43
2018-12-24T20:26:29.694Z,11.53
2018-12-24T20:28:55.788Z,8.10
2018-12-24T20:31:21.856Z,7.80
2018-12-24T20:33:47.969Z,8.53
2018-12-24T20:36:14.084Z,8.78
2018-12-24T20:38:40.181Z,10.48
2018-12-24T20:41:06.358Z,14.25
2018-12-24T20:43:32.527Z,8.05
2018-12-24T20:45:58.613Z,10.28
2018-12-24T20:48:24.696Z,9.00
2018-12-24T20:50:50.830Z,10.63
2018-12-24T20:53:16.900Z,8.73
2018-12-24T20:55:42.987Z,9.48
2018-12-24T20:58:09.058Z,9.35
2018-12-24T21:00:35.146Z,9.53
2018-12-24T21:03:01.216Z,12.68
2018-12-24T21:05:27.310Z,14.10
2018-12-24T21:07:53.484Z,26.60
2018-12-24T21:10:19.577Z,13.35
2018-12-24T21:12:45.662Z,11.48
2018-12-24T21:15:11.750Z,11.48
2018-12-24T21:17:37.843Z,11.30
2018-12-24T21:20:05.420Z,10.48
2018-12-24T21:22:31.513Z,12.28
2018-12-24T21:24:57.709Z,11.08
2018-12-24T21:27:23.927Z,11.97
2018-12-24T21:29:50.000Z,13.53
2018-12-24T21:32:16.088Z,10.43
2018-12-24T21:34:42.160Z,12.35
2018-12-24T21:37:08.257Z,11.35
2018-12-24T21:39:34.323Z,16.00
2018-12-24T21:42:00.404Z,14.18
2018-12-24T21:44:26.496Z,12.73
2018-12-24T21:46:52.588Z,12.95
2018-12-24T21:49:18.687Z,11.40
2018-12-24T21:51:44.758Z,10.50
2018-12-24T21:54:10.843Z,14.13
2018-12-24T21:56:36.926Z,14.58
2018-12-24T21:59:03.104Z,15.72
2018-12-24T22:01:29.182Z,16.37
2018-12-24T22:03:55.280Z,12.13
2018-12-24T22:06:21.380Z,13.75
2018-12-24T22:08:47.519Z,15.68
2018-12-24T22:11:13.612Z,16.30
2018-12-24T22:13:39.680Z,16.70
2018-12-24T22:16:05.792Z,15.55
2018-12-24T22:18:32.367Z,16.52
2018-12-24T22:20:58.667Z,15.28
2018-12-24T22:23:24.744Z,13.22
2018-12-24T22:25:50.849Z,14.58
2018-12-24T22:28:16.956Z,15.38
2018-12-24T22:30:43.152Z,16.48
2018-12-24T22:33:09.228Z,14.05
2018-12-24T22:35:35.320Z,14.85
2018-12-24T22:38:01.430Z,17.92
2018-12-24T22:40:27.494Z,14.85
2018-12-24T22:42:53.600Z,17.27
2018-12-24T22:45:19.683Z,16.10
2018-12-24T22:47:45.821Z,18.50
2018-12-24T22:50:11.888Z,15.15
2018-12-24T22:52:37.980Z,20.60
2018-12-24T22:55:04.054Z,17.85
2018-12-24T22:57:30.156Z,20.77
2018-12-24T22:59:58.715Z,15.55
2018-12-24T23:02:24.802Z,18.75
2018-12-24T23:04:50.900Z,15.50
2018-12-24T23:07:17.171Z,19.15
2018-12-24T23:09:43.259Z,19.48
2018-12-24T23:12:09.643Z,20.55
2018-12-24T23:14:35.733Z,24.43
2018-12-24T23:17:01.836Z,17.15
2018-12-24T23:19:28.040Z,18.73
2018-12-24T23:21:54.116Z,16.23
2018-12-24T23:24:20.192Z,21.93
2018-12-24T23:26:46.284Z,23.07
2018-12-24T23:29:12.365Z,20.95
2018-12-24T23:31:38.444Z,21.25
2018-12-24T23:34:04.516Z,19.75
2018-12-24T23:36:30.914Z,22.70
2018-12-24T23:38:56.980Z,16.67
2018-12-24T23:41:23.076Z,20.75
2018-12-24T23:43:49.139Z,18.77
2018-12-24T23:46:15.250Z,21.73
2018-12-24T23:48:41.335Z,18.55
2018-12-24T23:51:07.419Z,16.17
2018-12-24T23:53:33.500Z,15.83
2018-12-24T23:55:59.584Z,16.60
2018-12-24T23:58:25.808Z,16.75
